GVT weather

Majors Airport
Greenville, Texas, United States

Public forecast

Using degrees Fahrenheit for public forecast. Weather courtesy of forecast.io.

METAR (pilot weather report)

Retrieved 2019/06/26 01:35 UTC (0 seconds ago):

KGVT 260135Z AUTO 16005KT 10SM CLR 26/21 A2999 RMK AO2 LTG DSNT S

TAF (pilot weather forecast)

Forecast is more than 12 hours old.

Closest forecast is Dallas Love Field, 41.8 nm (77.4 km) WSW. Retrieved 2019/06/25 00:30 UTC (1 day ago):

TAF KDAL 252327Z 2600/2624 17012KT P6SM SCT250 FM261700 18012KT P6SM SCT040 BKN100